Time;durP1;ratioP1;P1;durP2;ratioP2;P2;SDS_P1;SDS_P2;PMS_P1;PMS_P2;Temp;Humidity;BMP_temperature;BMP_pressure;BME280_temperature;BME280_humidity;BME280_pressure;Samples;Min_cycle;Max_cycle;Signal;HPM_P1;HPM_P2
2022/10/16 00:00:42;;;;;;;1.77;1.45;;;;;;;;;;5069405;28;20667;-61
2022/10/16 00:03:10;;;;;;;3.08;1.30;;;;;;;;;;5067341;28;20659;-63
2022/10/16 00:05:42;;;;;;;1.65;1.50;;;;;;;;;;5064386;28;20668;-61
2022/10/16 00:08:10;;;;;;;2.00;1.50;;;;;;;;;;5069322;28;20345;-61
2022/10/16 00:10:37;;;;;;;2.58;1.50;;;;;;;;;;5062948;28;20300;-61
2022/10/16 00:13:05;;;;;;;2.40;1.77;;;;;;;;;;5072292;28;20244;-60
2022/10/16 00:15:39;;;;;;;1.83;1.73;;;;;;;;;;5067298;28;20228;-61
2022/10/16 00:18:07;;;;;;;6.10;1.58;;;;;;;;;;5067158;28;20243;-63
2022/10/16 00:20:36;;;;;;;3.30;1.90;;;;;;;;;;5070220;28;20537;-63
2022/10/16 00:23:05;;;;;;;5.78;2.05;;;;;;;;;;5070529;28;20209;-62
2022/10/16 00:25:32;;;;;;;2.08;1.70;;;;;;;;;;5069412;28;20205;-62
2022/10/16 00:28:00;;;;;;;4.18;1.60;;;;;;;;;;5061324;28;20222;-61
2022/10/16 00:30:28;;;;;;;2.25;1.80;;;;;;;;;;5066905;28;20301;-61
2022/10/16 00:32:56;;;;;;;2.38;1.45;;;;;;;;;;5062510;28;20305;-62
2022/10/16 00:35:23;;;;;;;4.78;1.95;;;;;;;;;;5062667;28;20225;-62
2022/10/16 00:37:50;;;;;;;2.90;1.77;;;;;;;;;;5069971;28;20702;-60
2022/10/16 00:40:19;;;;;;;2.10;1.88;;;;;;;;;;5065092;28;20740;-61
2022/10/16 00:42:46;;;;;;;3.58;1.90;;;;;;;;;;5063689;28;20198;-62
2022/10/16 00:45:13;;;;;;;4.00;2.60;;;;;;;;;;5063683;28;20297;-61
2022/10/16 00:47:47;;;;;;;2.05;1.60;;;;;;;;;;5062516;28;20707;-61
2022/10/16 00:50:19;;;;;;;2.90;1.75;;;;;;;;;;5065214;28;20248;-62
2022/10/16 00:52:47;;;;;;;1.90;1.63;;;;;;;;;;5063533;28;20255;-62
2022/10/16 00:55:15;;;;;;;2.03;1.92;;;;;;;;;;5060533;28;20314;-63
2022/10/16 00:57:42;;;;;;;2.88;1.80;;;;;;;;;;5062870;28;20232;-62
2022/10/16 01:00:11;;;;;;;3.47;1.70;;;;;;;;;;5054090;28;20349;-63
2022/10/16 01:02:38;;;;;;;3.17;1.85;;;;;;;;;;5062732;28;20238;-61
2022/10/16 01:05:06;;;;;;;3.35;2.03;;;;;;;;;;5066050;28;20212;-63
2022/10/16 01:07:53;;;;;;;2.13;1.80;;;;;;;;;;5065754;28;20267;-61
2022/10/16 01:10:39;;;;;;;5.43;1.90;;;;;;;;;;5066715;28;20564;-61
2022/10/16 01:13:12;;;;;;;2.22;1.70;;;;;;;;;;5066149;28;20557;-61
2022/10/16 01:15:39;;;;;;;1.80;1.70;;;;;;;;;;5062207;28;20231;-61
2022/10/16 01:18:11;;;;;;;2.53;1.77;;;;;;;;;;5062536;28;20594;-62
2022/10/16 01:20:43;;;;;;;4.07;1.80;;;;;;;;;;5065631;28;20255;-61
2022/10/16 01:23:10;;;;;;;2.42;2.22;;;;;;;;;;5065312;28;20285;-60
2022/10/16 01:25:47;;;;;;;4.07;1.80;;;;;;;;;;5066736;28;20293;-61
2022/10/16 01:28:15;;;;;;;1.98;1.52;;;;;;;;;;5061838;28;20304;-61
2022/10/16 01:30:43;;;;;;;2.30;1.80;;;;;;;;;;5059377;28;20263;-61
2022/10/16 01:33:20;;;;;;;2.05;1.85;;;;;;;;;;5063768;28;20293;-62
2022/10/16 01:35:58;;;;;;;3.30;1.60;;;;;;;;;;5063271;28;20773;-61
2022/10/16 01:38:35;;;;;;;2.20;1.80;;;;;;;;;;5061390;28;20270;-61
2022/10/16 01:41:05;;;;;;;4.18;1.73;;;;;;;;;;5059207;28;20594;-63
2022/10/16 01:43:39;;;;;;;2.05;1.95;;;;;;;;;;5061020;28;20296;-62
2022/10/16 01:46:07;;;;;;;6.85;2.70;;;;;;;;;;5057569;28;20202;-63
2022/10/16 01:48:35;;;;;;;4.93;1.90;;;;;;;;;;5070005;28;20221;-63
2022/10/16 01:51:07;;;;;;;1.83;1.73;;;;;;;;;;5060015;28;20273;-64
2022/10/16 01:53:35;;;;;;;3.97;1.70;;;;;;;;;;5062200;28;20337;-62
2022/10/16 01:56:04;;;;;;;2.97;1.90;;;;;;;;;;5065215;28;20308;-63
2022/10/16 01:58:35;;;;;;;2.22;1.98;;;;;;;;;;5062892;28;20256;-61
2022/10/16 02:01:03;;;;;;;1.90;1.80;;;;;;;;;;5059211;28;20765;-61
2022/10/16 02:03:32;;;;;;;4.07;2.10;;;;;;;;;;5065189;28;20213;-63
2022/10/16 02:06:00;;;;;;;2.10;1.90;;;;;;;;;;5065153;28;20301;-63
2022/10/16 02:08:29;;;;;;;2.90;2.20;;;;;;;;;;5060745;28;20235;-63
2022/10/16 02:10:57;;;;;;;1.92;1.83;;;;;;;;;;5057723;28;20236;-61
2022/10/16 02:13:36;;;;;;;1.90;1.80;;;;;;;;;;5062617;28;20292;-61
2022/10/16 02:16:04;;;;;;;3.08;1.80;;;;;;;;;;5062301;28;20251;-61
2022/10/16 02:18:32;;;;;;;2.28;1.77;;;;;;;;;;5061219;28;20241;-61
2022/10/16 02:21:19;;;;;;;5.32;2.10;;;;;;;;;;5061664;28;20224;-62
2022/10/16 02:24:08;;;;;;;3.75;2.13;;;;;;;;;;5058431;28;20774;-61
2022/10/16 02:26:46;;;;;;;4.03;2.15;;;;;;;;;;5060576;28;20225;-63
2022/10/16 02:29:16;;;;;;;4.18;2.22;;;;;;;;;;5060025;28;20650;-62
2022/10/16 02:31:47;;;;;;;3.95;2.30;;;;;;;;;;5064213;28;20252;-63
2022/10/16 02:34:16;;;;;;;2.70;1.90;;;;;;;;;;5063527;28;20236;-63
2022/10/16 02:36:44;;;;;;;3.78;1.95;;;;;;;;;;5060528;28;20686;-64
2022/10/16 02:39:11;;;;;;;2.80;2.03;;;;;;;;;;5068837;28;20229;-61
2022/10/16 02:41:39;;;;;;;3.08;2.10;;;;;;;;;;5068257;28;20241;-61
2022/10/16 02:44:06;;;;;;;4.07;2.03;;;;;;;;;;5064058;28;20491;-61
2022/10/16 02:46:33;;;;;;;3.90;2.20;;;;;;;;;;5062871;28;20304;-61
2022/10/16 02:49:01;;;;;;;2.83;2.10;;;;;;;;;;5063269;28;20591;-61
2022/10/16 02:51:28;;;;;;;2.65;2.28;;;;;;;;;;5058475;28;20218;-61
2022/10/16 02:53:55;;;;;;;3.35;1.90;;;;;;;;;;5066807;28;20205;-62
2022/10/16 02:56:23;;;;;;;3.28;2.08;;;;;;;;;;5082129;28;20316;-63
2022/10/16 02:58:51;;;;;;;3.20;1.90;;;;;;;;;;5062753;28;20222;-63
2022/10/16 03:01:18;;;;;;;4.38;2.20;;;;;;;;;;5068230;28;20730;-63
2022/10/16 03:03:45;;;;;;;4.82;1.80;;;;;;;;;;5058545;28;20743;-63
2022/10/16 03:06:12;;;;;;;3.33;2.08;;;;;;;;;;5070727;28;20307;-62
2022/10/16 03:08:40;;;;;;;2.72;2.00;;;;;;;;;;5071094;28;20328;-63
2022/10/16 03:11:07;;;;;;;4.53;1.90;;;;;;;;;;5072135;28;20216;-62
2022/10/16 03:13:34;;;;;;;5.28;2.10;;;;;;;;;;5066462;28;20296;-63
2022/10/16 03:16:02;;;;;;;3.80;2.25;;;;;;;;;;5064523;28;20324;-61
2022/10/16 03:18:29;;;;;;;3.63;1.63;;;;;;;;;;5068987;28;20217;-62
2022/10/16 03:20:56;;;;;;;2.78;2.10;;;;;;;;;;5067424;28;20297;-61
2022/10/16 03:23:23;;;;;;;3.08;2.25;;;;;;;;;;5066267;28;20640;-61
2022/10/16 03:25:51;;;;;;;4.63;2.13;;;;;;;;;;5068705;28;20218;-61
2022/10/16 03:28:18;;;;;;;1.98;1.88;;;;;;;;;;5069272;28;20267;-61
2022/10/16 03:30:46;;;;;;;2.85;1.77;;;;;;;;;;5067515;28;20644;-62
2022/10/16 03:33:13;;;;;;;2.00;1.90;;;;;;;;;;5064692;28;20236;-63
2022/10/16 03:35:40;;;;;;;2.70;2.28;;;;;;;;;;5063498;28;20790;-61
2022/10/16 03:38:07;;;;;;;2.95;2.13;;;;;;;;;;5059234;28;20309;-61
2022/10/16 03:40:35;;;;;;;4.47;2.33;;;;;;;;;;5058922;28;20297;-61
2022/10/16 03:43:02;;;;;;;5.15;2.00;;;;;;;;;;5065238;28;20205;-63
2022/10/16 03:45:30;;;;;;;2.22;2.03;;;;;;;;;;5051603;28;20210;-61
2022/10/16 03:47:57;;;;;;;2.55;2.35;;;;;;;;;;5069171;28;20680;-62
2022/10/16 03:50:24;;;;;;;2.35;2.20;;;;;;;;;;5063917;28;20752;-61
2022/10/16 03:52:52;;;;;;;3.65;2.25;;;;;;;;;;5064967;28;20193;-61
2022/10/16 03:55:19;;;;;;;4.80;2.42;;;;;;;;;;5067723;28;20225;-63
2022/10/16 03:57:46;;;;;;;2.65;2.45;;;;;;;;;;5064693;28;20315;-61
2022/10/16 04:00:13;;;;;;;4.45;4.03;;;;;;;;;;5064340;28;20288;-61
2022/10/16 04:02:41;;;;;;;3.22;2.92;;;;;;;;;;5063368;28;20213;-61
2022/10/16 04:05:09;;;;;;;11.27;3.30;;;;;;;;;;5062927;28;20213;-62
2022/10/16 04:07:37;;;;;;;3.47;2.22;;;;;;;;;;5061313;28;20641;-61
2022/10/16 04:10:05;;;;;;;2.45;2.22;;;;;;;;;;5061598;28;20646;-62
2022/10/16 04:12:32;;;;;;;4.10;2.30;;;;;;;;;;5060830;28;20296;-62
2022/10/16 04:14:59;;;;;;;2.30;2.10;;;;;;;;;;5065837;28;20212;-61
2022/10/16 04:17:27;;;;;;;3.15;2.10;;;;;;;;;;5066811;28;20724;-62
2022/10/16 04:19:55;;;;;;;3.38;2.30;;;;;;;;;;5065700;28;20728;-63
2022/10/16 04:22:22;;;;;;;6.32;2.20;;;;;;;;;;5068181;28;20229;-63
2022/10/16 04:24:49;;;;;;;4.78;2.10;;;;;;;;;;5069071;28;20212;-63
2022/10/16 04:27:17;;;;;;;2.58;2.20;;;;;;;;;;5071238;28;20320;-63
2022/10/16 04:29:44;;;;;;;3.35;2.03;;;;;;;;;;5061936;28;20229;-62
2022/10/16 04:32:11;;;;;;;4.47;2.00;;;;;;;;;;5069553;28;20297;-63
2022/10/16 04:34:40;;;;;;;2.10;1.95;;;;;;;;;;5068104;28;20251;-61
2022/10/16 04:37:07;;;;;;;3.35;2.15;;;;;;;;;;5069806;28;20731;-61
2022/10/16 04:39:34;;;;;;;1.95;1.85;;;;;;;;;;5064843;28;20204;-60
2022/10/16 04:42:02;;;;;;;4.05;1.95;;;;;;;;;;5062958;28;20229;-62
2022/10/16 04:44:29;;;;;;;2.17;1.67;;;;;;;;;;5067573;28;20294;-61
2022/10/16 04:46:57;;;;;;;2.45;1.83;;;;;;;;;;5063868;28;20332;-63
2022/10/16 04:49:24;;;;;;;3.60;1.90;;;;;;;;;;5056951;28;20906;-62
2022/10/16 04:51:51;;;;;;;2.50;1.80;;;;;;;;;;5068895;28;20236;-62
2022/10/16 04:54:19;;;;;;;3.40;2.00;;;;;;;;;;5068951;28;20233;-62
2022/10/16 04:56:50;;;;;;;2.90;1.90;;;;;;;;;;5062752;28;20308;-61
2022/10/16 04:59:18;;;;;;;4.22;2.00;;;;;;;;;;5067546;28;20212;-62
2022/10/16 05:01:46;;;;;;;2.80;2.00;;;;;;;;;;5063298;28;20824;-62
2022/10/16 05:04:14;;;;;;;4.18;2.03;;;;;;;;;;5067720;28;20301;-62
2022/10/16 05:06:42;;;;;;;3.85;1.92;;;;;;;;;;5067123;28;20221;-62
2022/10/16 05:09:10;;;;;;;2.30;2.10;;;;;;;;;;5064615;28;20333;-61
2022/10/16 05:11:37;;;;;;;2.05;1.85;;;;;;;;;;5057593;28;20209;-63
2022/10/16 05:14:04;;;;;;;2.70;2.13;;;;;;;;;;5068418;28;20304;-61
2022/10/16 05:16:32;;;;;;;2.90;1.80;;;;;;;;;;5066479;28;20702;-63
2022/10/16 05:18:59;;;;;;;2.72;2.10;;;;;;;;;;5068341;28;20308;-62
2022/10/16 05:21:46;;;;;;;4.88;2.10;;;;;;;;;;5067554;28;20206;-63
2022/10/16 05:24:14;;;;;;;2.58;2.38;;;;;;;;;;5067918;28;20400;-62
2022/10/16 05:26:41;;;;;;;2.50;2.03;;;;;;;;;;5061310;28;21218;-61
2022/10/16 05:29:09;;;;;;;2.50;2.30;;;;;;;;;;5063082;28;20786;-62
2022/10/16 05:31:36;;;;;;;2.88;1.90;;;;;;;;;;5060353;28;20285;-63
2022/10/16 05:34:04;;;;;;;4.45;2.10;;;;;;;;;;5064178;28;20289;-63
2022/10/16 05:36:31;;;;;;;3.03;2.00;;;;;;;;;;5065857;28;20728;-63
2022/10/16 05:38:58;;;;;;;2.83;1.98;;;;;;;;;;5064735;28;20248;-63
2022/10/16 05:41:26;;;;;;;2.25;1.92;;;;;;;;;;5062639;28;20201;-63
2022/10/16 05:43:53;;;;;;;1.98;1.88;;;;;;;;;;5064552;28;20225;-63
2022/10/16 05:46:21;;;;;;;2.25;2.05;;;;;;;;;;5058801;28;20264;-63
2022/10/16 05:48:48;;;;;;;2.70;2.10;;;;;;;;;;5060505;28;20225;-62
2022/10/16 05:51:15;;;;;;;2.50;1.70;;;;;;;;;;5056786;28;20217;-65
2022/10/16 05:53:43;;;;;;;2.88;1.90;;;;;;;;;;5061551;28;20205;-63
2022/10/16 05:56:12;;;;;;;1.65;1.55;;;;;;;;;;5064666;28;20319;-62
2022/10/16 05:58:44;;;;;;;3.97;1.70;;;;;;;;;;5063041;28;20729;-62
2022/10/16 06:01:15;;;;;;;4.10;1.92;;;;;;;;;;5065184;28;20206;-64
2022/10/16 06:03:43;;;;;;;2.03;1.92;;;;;;;;;;5069004;28;20194;-64
2022/10/16 06:06:17;;;;;;;4.05;2.00;;;;;;;;;;5057122;28;20206;-64
2022/10/16 06:08:45;;;;;;;4.32;1.70;;;;;;;;;;5069284;28;20225;-62
2022/10/16 06:11:15;;;;;;;5.15;1.60;;;;;;;;;;5059088;28;20210;-62
2022/10/16 06:13:42;;;;;;;1.60;1.50;;;;;;;;;;5063590;28;20312;-61
2022/10/16 06:16:11;;;;;;;4.05;2.00;;;;;;;;;;5064018;28;20308;-61
2022/10/16 06:18:38;;;;;;;3.03;1.77;;;;;;;;;;5065562;28;20268;-63
2022/10/16 06:21:14;;;;;;;3.40;2.13;;;;;;;;;;5064134;28;20300;-62
2022/10/16 06:23:41;;;;;;;4.88;1.67;;;;;;;;;;5058252;28;20292;-61
2022/10/16 06:26:10;;;;;;;4.10;1.77;;;;;;;;;;5064156;28;20225;-62
2022/10/16 06:28:38;;;;;;;4.70;1.50;;;;;;;;;;5054221;28;20231;-61
2022/10/16 06:31:06;;;;;;;3.30;1.80;;;;;;;;;;5055547;28;20302;-61
2022/10/16 06:33:35;;;;;;;2.63;1.83;;;;;;;;;;5053565;28;20296;-61
2022/10/16 06:36:03;;;;;;;2.60;1.58;;;;;;;;;;5047857;28;20308;-63
2022/10/16 06:38:31;;;;;;;1.92;1.70;;;;;;;;;;5053317;28;20228;-60
2022/10/16 06:40:58;;;;;;;2.05;1.60;;;;;;;;;;5061821;28;20228;-61
2022/10/16 06:43:26;;;;;;;2.45;1.30;;;;;;;;;;5066729;28;20281;-62
2022/10/16 06:45:54;;;;;;;1.40;1.30;;;;;;;;;;5063121;28;20202;-61
2022/10/16 06:48:21;;;;;;;2.75;1.70;;;;;;;;;;5062962;28;20225;-61
2022/10/16 06:51:01;;;;;;;2.15;1.90;;;;;;;;;;5060568;28;20201;-62
2022/10/16 06:53:30;;;;;;;2.40;1.50;;;;;;;;;;5066322;28;20266;-63
2022/10/16 06:56:11;;;;;;;2.75;1.40;;;;;;;;;;5063687;28;20226;-62
2022/10/16 06:58:38;;;;;;;3.13;2.00;;;;;;;;;;5067400;28;20213;-63
2022/10/16 07:01:06;;;;;;;3.00;1.40;;;;;;;;;;5068795;28;20209;-62
2022/10/16 07:03:33;;;;;;;1.70;1.60;;;;;;;;;;5067841;28;20285;-63
2022/10/16 07:06:04;;;;;;;2.42;1.67;;;;;;;;;;5063736;28;20666;-62
2022/10/16 07:08:36;;;;;;;4.80;1.80;;;;;;;;;;5062633;28;20228;-64
2022/10/16 07:11:08;;;;;;;4.15;1.63;;;;;;;;;;5067092;28;20622;-63
2022/10/16 07:13:36;;;;;;;1.50;1.40;;;;;;;;;;5068234;28;20216;-62
2022/10/16 07:16:07;;;;;;;2.78;1.40;;;;;;;;;;5068125;28;20328;-63
2022/10/16 07:18:34;;;;;;;1.83;1.73;;;;;;;;;;5068704;28;20304;-63
2022/10/16 07:21:09;;;;;;;2.38;1.70;;;;;;;;;;5069627;28;20304;-63
2022/10/16 07:23:37;;;;;;;2.80;1.42;;;;;;;;;;5059516;28;20229;-63
2022/10/16 07:26:05;;;;;;;1.67;1.55;;;;;;;;;;5071341;28;20207;-62
2022/10/16 07:28:33;;;;;;;1.65;1.55;;;;;;;;;;5066320;28;20228;-63
2022/10/16 07:31:01;;;;;;;1.95;1.55;;;;;;;;;;5067420;28;20213;-62
2022/10/16 07:33:29;;;;;;;1.63;1.52;;;;;;;;;;5065392;28;20201;-62
2022/10/16 07:35:57;;;;;;;1.73;1.63;;;;;;;;;;5068832;28;20286;-62
2022/10/16 07:38:24;;;;;;;2.67;1.65;;;;;;;;;;5065797;28;20937;-62
2022/10/16 07:41:02;;;;;;;4.88;2.30;;;;;;;;;;5066476;28;20198;-62
2022/10/16 07:43:29;;;;;;;4.93;1.92;;;;;;;;;;5069905;28;20288;-63
2022/10/16 07:45:57;;;;;;;2.45;1.98;;;;;;;;;;5065964;28;20220;-62
2022/10/16 07:48:34;;;;;;;2.58;2.10;;;;;;;;;;5060989;28;20570;-63
2022/10/16 07:51:02;;;;;;;1.83;1.73;;;;;;;;;;5063779;28;20611;-61
2022/10/16 07:53:30;;;;;;;2.85;1.92;;;;;;;;;;5064796;28;20229;-61
2022/10/16 07:56:05;;;;;;;3.67;1.95;;;;;;;;;;5070561;28;20864;-61
2022/10/16 07:58:33;;;;;;;1.55;1.25;;;;;;;;;;5064864;28;20270;-61
2022/10/16 08:01:04;;;;;;;3.58;1.48;;;;;;;;;;5064868;28;20296;-61
2022/10/16 08:03:31;;;;;;;1.92;1.55;;;;;;;;;;5068706;28;20198;-62
2022/10/16 08:05:59;;;;;;;2.13;1.65;;;;;;;;;;5060081;28;20230;-63
2022/10/16 08:08:27;;;;;;;1.55;1.48;;;;;;;;;;5058086;28;20321;-63
2022/10/16 08:10:54;;;;;;;2.63;1.42;;;;;;;;;;5065995;28;20300;-62
2022/10/16 08:13:22;;;;;;;1.75;1.63;;;;;;;;;;5051904;28;20217;-64
2022/10/16 08:15:49;;;;;;;3.08;1.50;;;;;;;;;;5060903;28;20198;-62
2022/10/16 08:18:17;;;;;;;2.17;1.63;;;;;;;;;;5060331;28;20229;-62
2022/10/16 08:20:44;;;;;;;2.28;1.60;;;;;;;;;;5059977;28;20300;-61
2022/10/16 08:23:13;;;;;;;2.22;1.55;;;;;;;;;;5063992;28;20210;-62
2022/10/16 08:25:41;;;;;;;1.48;1.38;;;;;;;;;;5069223;28;20198;-61
2022/10/16 08:28:10;;;;;;;1.58;1.48;;;;;;;;;;5063205;28;20230;-62
2022/10/16 08:30:37;;;;;;;5.00;1.58;;;;;;;;;;5067081;28;20210;-61
2022/10/16 08:33:06;;;;;;;3.50;1.63;;;;;;;;;;5067855;28;20202;-61
2022/10/16 08:35:33;;;;;;;3.40;1.80;;;;;;;;;;5062717;28;20707;-62
2022/10/16 08:38:03;;;;;;;1.60;1.50;;;;;;;;;;5064029;28;20279;-62
2022/10/16 08:40:32;;;;;;;1.60;1.50;;;;;;;;;;5069528;28;20208;-63
2022/10/16 08:43:15;;;;;;;3.55;1.63;;;;;;;;;;5068728;28;20284;-63
2022/10/16 08:46:01;;;;;;;4.72;1.60;;;;;;;;;;5069626;28;20288;-61
2022/10/16 08:48:34;;;;;;;1.85;1.42;;;;;;;;;;5068967;28;20831;-62
2022/10/16 08:51:02;;;;;;;1.42;1.33;;;;;;;;;;5070382;28;20206;-63
2022/10/16 08:53:32;;;;;;;2.40;1.40;;;;;;;;;;5062146;28;20297;-64
2022/10/16 08:55:59;;;;;;;1.33;1.20;;;;;;;;;;5061729;28;20621;-63
2022/10/16 08:58:28;;;;;;;2.58;1.52;;;;;;;;;;5063272;28;20260;-63
2022/10/16 09:01:11;;;;;;;3.17;1.70;;;;;;;;;;5064150;28;20289;-61
2022/10/16 09:03:56;;;;;;;1.48;1.38;;;;;;;;;;5067175;28;20571;-62
2022/10/16 09:06:36;;;;;;;2.63;1.40;;;;;;;;;;5066198;28;20243;-61
2022/10/16 09:09:13;;;;;;;2.42;2.03;;;;;;;;;;5081926;28;20320;-62
2022/10/16 09:11:50;;;;;;;1.55;1.45;;;;;;;;;;5074517;28;20261;-63
2022/10/16 09:14:44;;;;;;;2.53;1.55;;;;;;;;;;5069332;28;20201;-63
2022/10/16 09:17:20;;;;;;;2.28;1.40;;;;;;;;;;5062324;28;20228;-61
2022/10/16 09:19:52;;;;;;;1.30;1.20;;;;;;;;;;5068060;28;20710;-62
2022/10/16 09:22:22;;;;;;;2.92;1.25;;;;;;;;;;5062579;28;20281;-61
2022/10/16 09:24:50;;;;;;;2.92;1.20;;;;;;;;;;5066470;28;20233;-63
2022/10/16 09:27:17;;;;;;;1.10;1.10;;;;;;;;;;5058308;28;20253;-63
2022/10/16 09:29:44;;;;;;;1.73;1.10;;;;;;;;;;5067266;28;20252;-63
2022/10/16 09:32:18;;;;;;;1.30;1.20;;;;;;;;;;5058258;28;20289;-64
2022/10/16 09:34:53;;;;;;;2.00;1.20;;;;;;;;;;5069953;28;20289;-62
2022/10/16 09:37:21;;;;;;;0.98;0.98;;;;;;;;;;5066193;28;20221;-63
2022/10/16 09:39:50;;;;;;;2.88;1.20;;;;;;;;;;5060394;28;20209;-61
2022/10/16 09:42:19;;;;;;;4.35;1.40;;;;;;;;;;5063786;28;20282;-62
2022/10/16 09:44:53;;;;;;;2.00;1.30;;;;;;;;;;5064373;28;20296;-61
2022/10/16 09:47:25;;;;;;;1.20;1.10;;;;;;;;;;5059093;28;20224;-63
2022/10/16 09:49:57;;;;;;;1.58;1.10;;;;;;;;;;5058867;28;20237;-61
2022/10/16 09:52:25;;;;;;;2.25;1.10;;;;;;;;;;5064755;28;20213;-62
2022/10/16 09:54:54;;;;;;;1.90;1.20;;;;;;;;;;5062687;28;20287;-61
2022/10/16 09:57:21;;;;;;;1.88;1.15;;;;;;;;;;5065746;28;20312;-61
2022/10/16 09:59:49;;;;;;;1.95;1.20;;;;;;;;;;5069078;28;20198;-62
2022/10/16 10:02:18;;;;;;;3.22;1.23;;;;;;;;;;5066370;28;20296;-63
2022/10/16 10:04:48;;;;;;;2.45;1.30;;;;;;;;;;5066295;28;20681;-61
2022/10/16 10:07:18;;;;;;;7.75;1.48;;;;;;;;;;5066869;28;20284;-61
2022/10/16 10:09:46;;;;;;;1.60;1.50;;;;;;;;;;5065499;28;20301;-61
2022/10/16 10:12:24;;;;;;;3.78;1.83;;;;;;;;;;5068059;28;20237;-61
2022/10/16 10:14:57;;;;;;;1.55;1.40;;;;;;;;;;5062586;28;20229;-61
2022/10/16 10:17:26;;;;;;;3.92;1.13;;;;;;;;;;5063399;28;20325;-61
2022/10/16 10:20:02;;;;;;;1.75;1.00;;;;;;;;;;5061735;28;20635;-63
2022/10/16 10:22:45;;;;;;;3.45;1.27;;;;;;;;;;5066748;28;20225;-63
2022/10/16 10:25:13;;;;;;;1.98;1.30;;;;;;;;;;5066887;28;20581;-61
2022/10/16 10:27:58;;;;;;;2.17;1.30;;;;;;;;;;5065142;28;20252;-61
2022/10/16 10:30:44;;;;;;;2.55;1.00;;;;;;;;;;5067579;28;20244;-61
2022/10/16 10:33:21;;;;;;;2.70;2.20;;;;;;;;;;5064674;28;20194;-62
2022/10/16 10:35:49;;;;;;;2.45;2.15;;;;;;;;;;5064311;28;20638;-63
2022/10/16 10:38:16;;;;;;;4.15;1.30;;;;;;;;;;5064353;28;20233;-62
2022/10/16 10:40:49;;;;;;;2.10;1.20;;;;;;;;;;5066947;28;20201;-63
2022/10/16 10:43:27;;;;;;;4.57;1.40;;;;;;;;;;5064136;28;20735;-61
2022/10/16 10:46:05;;;;;;;3.88;1.38;;;;;;;;;;5066243;28;20373;-61
2022/10/16 10:48:43;;;;;;;1.50;1.33;;;;;;;;;;5065937;28;20307;-63
2022/10/16 10:51:20;;;;;;;2.45;1.65;;;;;;;;;;5064985;28;20663;-62
2022/10/16 10:53:56;;;;;;;3.88;1.40;;;;;;;;;;5058849;28;20211;-62
2022/10/16 10:56:36;;;;;;;1.50;1.40;;;;;;;;;;5061019;28;20271;-61
2022/10/16 10:59:06;;;;;;;1.60;1.50;;;;;;;;;;5065198;28;20332;-62
2022/10/16 11:01:33;;;;;;;1.48;1.38;;;;;;;;;;5063227;28;20276;-62
2022/10/16 11:04:16;;;;;;;3.17;1.15;;;;;;;;;;5065393;28;20201;-63
2022/10/16 11:06:45;;;;;;;1.30;1.13;;;;;;;;;;5063598;28;20281;-62
2022/10/16 11:09:24;;;;;;;1.17;1.05;;;;;;;;;;5062082;28;20659;-62
2022/10/16 11:11:54;;;;;;;1.25;0.90;;;;;;;;;;5059933;28;20292;-63
2022/10/16 11:14:22;;;;;;;1.60;1.20;;;;;;;;;;5066389;28;20300;-63
2022/10/16 11:16:53;;;;;;;4.05;1.20;;;;;;;;;;5067046;28;20600;-62
2022/10/16 11:19:27;;;;;;;1.10;1.10;;;;;;;;;;5065302;28;20762;-63
2022/10/16 11:22:02;;;;;;;1.08;1.08;;;;;;;;;;5066305;28;20296;-63
2022/10/16 11:24:56;;;;;;;3.65;1.23;;;;;;;;;;5063832;28;20616;-61
2022/10/16 11:27:33;;;;;;;1.40;1.10;;;;;;;;;;5061649;28;20699;-62
2022/10/16 11:30:02;;;;;;;4.18;1.20;;;;;;;;;;5057741;28;20292;-62
2022/10/16 11:32:33;;;;;;;3.25;1.13;;;;;;;;;;5066365;28;20647;-62
2022/10/16 11:35:05;;;;;;;1.00;1.00;;;;;;;;;;5064126;28;20288;-62
2022/10/16 11:37:42;;;;;;;1.60;1.10;;;;;;;;;;5067106;28;20225;-61
2022/10/16 11:40:15;;;;;;;2.58;0.93;;;;;;;;;;5066088;28;20281;-62
2022/10/16 11:42:47;;;;;;;1.00;1.00;;;;;;;;;;5066036;28;20229;-62
2022/10/16 11:45:17;;;;;;;5.47;1.30;;;;;;;;;;5069750;28;20201;-62
2022/10/16 11:47:46;;;;;;;1.23;0.95;;;;;;;;;;5067237;28;20221;-63
2022/10/16 11:50:28;;;;;;;1.15;1.00;;;;;;;;;;5063902;28;20207;-63
2022/10/16 11:52:59;;;;;;;1.10;1.10;;;;;;;;;;5060480;28;20292;-61
2022/10/16 11:55:37;;;;;;;1.58;1.02;;;;;;;;;;5061822;28;20202;-61
2022/10/16 11:58:16;;;;;;;3.38;1.23;;;;;;;;;;5060036;28;20233;-62
2022/10/16 12:00:56;;;;;;;2.78;1.30;;;;;;;;;;5059418;28;20286;-61
2022/10/16 12:03:32;;;;;;;2.75;1.30;;;;;;;;;;5053086;28;20241;-61
2022/10/16 12:06:19;;;;;;;2.30;1.05;;;;;;;;;;5054169;28;20213;-63
2022/10/16 12:08:46;;;;;;;2.45;1.10;;;;;;;;;;5081720;28;20312;-61
2022/10/16 12:11:24;;;;;;;4.32;1.20;;;;;;;;;;5067809;28;20267;-62
2022/10/16 12:13:52;;;;;;;3.42;1.20;;;;;;;;;;5066069;28;20239;-62
2022/10/16 12:16:21;;;;;;;2.05;1.10;;;;;;;;;;5063344;28;20284;-62
2022/10/16 12:18:49;;;;;;;1.30;1.20;;;;;;;;;;5061786;28;20763;-63
2022/10/16 12:21:18;;;;;;;2.17;1.20;;;;;;;;;;5065321;28;20205;-64
2022/10/16 12:23:53;;;;;;;1.23;1.10;;;;;;;;;;5063494;28;20228;-63
2022/10/16 12:26:32;;;;;;;1.30;1.20;;;;;;;;;;5055203;28;20258;-63
2022/10/16 12:29:31;;;;;;;2.60;1.13;;;;;;;;;;5058543;28;20233;-62
2022/10/16 12:31:59;;;;;;;3.33;1.42;;;;;;;;;;5014418;28;20687;-62
2022/10/16 12:34:26;;;;;;;2.90;1.20;;;;;;;;;;5067444;28;20201;-62
2022/10/16 12:36:54;;;;;;;1.20;1.10;;;;;;;;;;5061307;28;20704;-63
2022/10/16 12:39:23;;;;;;;1.30;1.20;;;;;;;;;;5061222;28;20229;-62
2022/10/16 12:42:20;;;;;;;2.50;1.20;;;;;;;;;;5065884;28;20653;-62
2022/10/16 12:44:47;;;;;;;1.95;1.23;;;;;;;;;;5069623;28;20208;-62
2022/10/16 12:47:30;;;;;;;1.10;1.10;;;;;;;;;;5060421;28;20264;-62
2022/10/16 12:49:58;;;;;;;2.05;1.27;;;;;;;;;;5055207;28;20202;-62
2022/10/16 12:52:36;;;;;;;2.30;1.17;;;;;;;;;;5062718;28;20210;-62
2022/10/16 12:55:04;;;;;;;2.50;1.35;;;;;;;;;;5076182;28;20197;-61
2022/10/16 12:57:34;;;;;;;1.30;1.20;;;;;;;;;;5067917;28;20232;-62
2022/10/16 13:00:18;;;;;;;3.88;1.52;;;;;;;;;;5061659;28;20205;-62
2022/10/16 13:03:04;;;;;;;1.42;1.33;;;;;;;;;;5054566;28;20259;-62
2022/10/16 13:05:53;;;;;;;1.73;1.20;;;;;;;;;;5058314;28;20283;-62
2022/10/16 13:08:21;;;;;;;3.03;1.30;;;;;;;;;;5062181;28;20225;-61
2022/10/16 13:10:57;;;;;;;2.13;1.13;;;;;;;;;;5066654;28;20305;-63
2022/10/16 13:13:27;;;;;;;2.90;1.42;;;;;;;;;;5062200;28;20292;-62
2022/10/16 13:16:14;;;;;;;2.58;1.50;;;;;;;;;;5064024;28;20254;-63
2022/10/16 13:18:53;;;;;;;1.90;1.63;;;;;;;;;;5062520;28;20316;-62
2022/10/16 13:21:20;;;;;;;1.52;1.48;;;;;;;;;;5064481;28;20775;-62
2022/10/16 13:23:51;;;;;;;1.63;1.52;;;;;;;;;;5065523;28;20293;-62
2022/10/16 13:26:18;;;;;;;1.30;1.20;;;;;;;;;;5066814;28;20202;-63
2022/10/16 13:28:46;;;;;;;1.45;1.15;;;;;;;;;;5062231;28;20268;-63
2022/10/16 13:31:16;;;;;;;1.17;1.08;;;;;;;;;;5066788;28;20198;-62
2022/10/16 13:33:47;;;;;;;3.05;1.40;;;;;;;;;;5059945;28;20205;-62
2022/10/16 13:36:19;;;;;;;2.78;1.30;;;;;;;;;;5057311;28;20263;-62
2022/10/16 13:38:47;;;;;;;1.65;1.48;;;;;;;;;;5075033;28;20240;-62
2022/10/16 13:41:20;;;;;;;3.22;1.45;;;;;;;;;;5058056;28;20234;-62
2022/10/16 13:43:51;;;;;;;3.00;1.42;;;;;;;;;;5057741;28;20206;-62
2022/10/16 13:46:19;;;;;;;1.30;1.20;;;;;;;;;;5054428;28;20211;-62
2022/10/16 13:48:59;;;;;;;1.75;1.40;;;;;;;;;;5056199;28;20774;-63
2022/10/16 13:51:27;;;;;;;1.40;1.30;;;;;;;;;;5055948;28;20292;-63
2022/10/16 13:53:58;;;;;;;3.53;1.40;;;;;;;;;;5054939;28;20645;-63
2022/10/16 13:56:27;;;;;;;3.15;1.20;;;;;;;;;;5057240;28;20674;-64
2022/10/16 13:59:02;;;;;;;3.42;1.20;;;;;;;;;;5059441;28;20229;-63
2022/10/16 14:01:32;;;;;;;3.10;1.65;;;;;;;;;;5065132;28;20287;-61
2022/10/16 14:04:04;;;;;;;2.40;1.35;;;;;;;;;;5060480;28;20210;-61
2022/10/16 14:06:32;;;;;;;2.22;1.20;;;;;;;;;;5049216;28;20206;-62
2022/10/16 14:09:02;;;;;;;2.05;1.35;;;;;;;;;;5056166;28;20604;-63
2022/10/16 14:11:29;;;;;;;2.67;1.48;;;;;;;;;;5051944;28;20206;-63
2022/10/16 14:13:57;;;;;;;2.20;1.30;;;;;;;;;;5065932;28;20656;-64
2022/10/16 14:16:26;;;;;;;1.35;1.25;;;;;;;;;;5068560;28;20241;-62
2022/10/16 14:18:56;;;;;;;2.50;1.13;;;;;;;;;;5063107;28;20313;-62
2022/10/16 14:21:25;;;;;;;2.95;1.17;;;;;;;;;;5059320;28;20709;-61
2022/10/16 14:23:52;;;;;;;3.03;1.17;;;;;;;;;;5068050;28;20223;-62
2022/10/16 14:26:20;;;;;;;1.50;1.15;;;;;;;;;;5059716;28;20205;-62
2022/10/16 14:28:49;;;;;;;4.20;1.50;;;;;;;;;;5067977;28;20251;-61
2022/10/16 14:31:22;;;;;;;1.63;1.30;;;;;;;;;;5068385;28;20244;-62
2022/10/16 14:33:50;;;;;;;1.33;1.23;;;;;;;;;;5069071;28;20233;-61
2022/10/16 14:36:18;;;;;;;2.38;2.00;;;;;;;;;;5061790;28;20218;-62
2022/10/16 14:38:50;;;;;;;4.75;2.03;;;;;;;;;;5067240;28;20308;-63
2022/10/16 14:41:21;;;;;;;6.35;2.20;;;;;;;;;;5066070;28;20790;-61
2022/10/16 14:43:51;;;;;;;2.80;1.60;;;;;;;;;;5064331;28;20284;-63
2022/10/16 14:46:20;;;;;;;1.80;1.30;;;;;;;;;;5053223;28;20218;-63
2022/10/16 14:48:49;;;;;;;1.30;1.20;;;;;;;;;;5054274;28;20269;-62
2022/10/16 14:51:18;;;;;;;4.28;1.30;;;;;;;;;;5048520;28;20297;-61
2022/10/16 14:53:45;;;;;;;2.35;1.60;;;;;;;;;;5055135;28;20213;-62
2022/10/16 14:56:21;;;;;;;3.08;1.60;;;;;;;;;;5068010;28;20233;-62
2022/10/16 14:58:48;;;;;;;2.95;1.50;;;;;;;;;;5063098;28;20312;-62
2022/10/16 15:01:16;;;;;;;6.20;1.65;;;;;;;;;;5068945;28;20248;-63
2022/10/16 15:03:43;;;;;;;5.47;1.60;;;;;;;;;;5072309;28;20194;-64